createdAt,value
2023-04-24T00:04:12.301Z,74.18
2023-04-24T00:09:11.843Z,73.47
2023-04-24T00:14:12.893Z,73.91
2023-04-24T00:19:11.781Z,73.33
2023-04-24T00:24:11.682Z,74.21
2023-04-24T00:29:11.587Z,74.55
2023-04-24T00:34:11.567Z,74.79
2023-04-24T00:39:11.491Z,73.77
2023-04-24T00:44:11.480Z,74.66
2023-04-24T00:49:11.405Z,76.02
2023-04-24T00:54:11.377Z,75.71
2023-04-24T00:59:11.315Z,73.94
2023-04-24T01:04:11.416Z,72.72
2023-04-24T01:09:11.205Z,72.28
2023-04-24T01:14:11.141Z,71.02
2023-04-24T01:19:11.090Z,69.38
2023-04-24T01:24:11.018Z,70.37
2023-04-24T01:29:10.972Z,70.37
2023-04-24T01:34:10.911Z,72.21
2023-04-24T01:39:10.847Z,71.12
2023-04-24T01:44:10.897Z,71.43
2023-04-24T01:49:10.720Z,72.24
2023-04-24T01:54:10.678Z,71.87
2023-04-24T01:59:10.707Z,73.77
2023-04-24T02:04:10.720Z,75.24
2023-04-24T02:09:10.512Z,74.84
2023-04-24T02:14:10.495Z,75.04
2023-04-24T02:19:10.422Z,75.89
2023-04-24T02:24:10.343Z,76.09
2023-04-24T02:29:10.340Z,76.71
2023-04-24T02:34:10.257Z,76.91
2023-04-24T02:39:10.173Z,76.88
2023-04-24T02:44:10.168Z,76.67
2023-04-24T02:49:10.064Z,75.92
2023-04-24T02:54:09.989Z,76.81
2023-04-24T02:59:09.961Z,76.74
2023-04-24T03:04:10.118Z,76.23
2023-04-24T03:09:09.839Z,76.03
2023-04-24T03:14:09.789Z,77.39
2023-04-24T03:19:09.812Z,77.49
2023-04-24T03:24:09.705Z,76.43
2023-04-24T03:29:09.605Z,76.81
2023-04-24T03:34:09.600Z,77.04
2023-04-24T03:39:09.525Z,76.74
2023-04-24T03:44:09.456Z,77.25
2023-04-24T03:49:09.416Z,76.74
2023-04-24T03:54:09.338Z,76.43
2023-04-24T03:59:09.377Z,76.29
2023-04-24T04:04:09.416Z,76.16
2023-04-24T04:09:09.189Z,76.84
2023-04-24T04:14:09.137Z,76.50
2023-04-24T04:19:09.549Z,76.94
2023-04-24T04:24:09.044Z,77.66
2023-04-24T04:29:08.997Z,75.71
2023-04-24T04:34:08.999Z,76.67
2023-04-24T04:39:08.868Z,75.82
2023-04-24T04:44:09.942Z,75.62
2023-04-24T04:49:08.765Z,75.78
2023-04-24T04:54:08.708Z,75.71
2023-04-24T04:59:08.636Z,76.64
2023-04-24T05:04:08.761Z,77.19
2023-04-24T05:09:08.558Z,77.25
2023-04-24T05:14:08.484Z,75.48
2023-04-24T05:19:17.266Z,75.51
2023-04-24T05:24:08.513Z,77.35
2023-04-24T05:29:08.367Z,78.54
2023-04-24T05:34:08.272Z,80.97
2023-04-24T05:39:09.262Z,81.38
2023-04-24T05:44:08.170Z,83.11
2023-04-24T05:49:08.105Z,83.66
2023-04-24T05:54:08.038Z,83.83
2023-04-24T05:59:08.014Z,83.76
2023-04-24T06:04:08.210Z,83.19
2023-04-24T06:09:07.929Z,84.63
2023-04-24T06:14:07.849Z,84.31
2023-04-24T06:19:07.778Z,84.77
2023-04-24T06:24:07.700Z,83.66
2023-04-24T06:29:07.797Z,84.11
2023-04-24T06:34:17.073Z,84.52
2023-04-24T06:39:07.876Z,85.10
2023-04-24T06:44:07.616Z,85.14
2023-04-24T06:49:07.553Z,85.79
2023-04-24T06:54:07.378Z,84.95
2023-04-24T06:59:07.365Z,85.40
2023-04-24T07:04:07.482Z,85.81
2023-04-24T07:09:07.249Z,84.38
2023-04-24T07:14:07.235Z,84.28
2023-04-24T07:19:07.154Z,85.61
2023-04-24T07:24:07.102Z,84.42
2023-04-24T07:29:06.980Z,86.04
2023-04-24T07:34:06.951Z,85.96
2023-04-24T07:39:06.866Z,87.04
2023-04-24T07:44:06.835Z,84.52
2023-04-24T07:49:13.631Z,84.34
2023-04-24T07:54:07.785Z,84.52
2023-04-24T07:59:06.698Z,84.56
2023-04-24T08:04:06.952Z,85.10
2023-04-24T08:09:06.573Z,82.98
2023-04-24T08:14:06.487Z,83.50
2023-04-24T08:19:09.838Z,82.84
2023-04-24T08:24:08.414Z,83.33
2023-04-24T08:29:06.455Z,84.72
2023-04-24T08:34:06.316Z,84.56
2023-04-24T08:39:06.251Z,85.38
2023-04-24T08:44:06.562Z,85.72
2023-04-24T08:49:06.096Z,85.99
2023-04-24T08:54:06.105Z,84.78
2023-04-24T08:59:07.245Z,86.42
2023-04-24T09:04:06.146Z,86.14
2023-04-24T09:09:05.919Z,86.77
2023-04-24T09:14:05.825Z,85.61
2023-04-24T09:19:09.191Z,86.24
2023-04-24T09:24:05.688Z,84.71
2023-04-24T09:29:05.659Z,84.69
2023-04-24T09:34:07.777Z,86.61
2023-04-24T09:39:06.734Z,86.71
2023-04-24T09:44:05.495Z,86.99
2023-04-24T09:49:05.583Z,87.20
2023-04-24T09:54:05.414Z,86.57
2023-04-24T09:59:05.354Z,87.10
2023-04-24T10:04:05.364Z,86.79
2023-04-24T10:09:05.249Z,86.96
2023-04-24T10:14:05.257Z,86.32
2023-04-24T10:19:05.174Z,86.79
2023-04-24T10:24:05.118Z,87.16
2023-04-24T10:29:05.129Z,86.61
2023-04-24T10:34:04.942Z,86.79
2023-04-24T10:39:04.884Z,86.58
2023-04-24T10:44:04.830Z,86.99
2023-04-24T10:49:04.872Z,87.02
2023-04-24T10:54:04.702Z,86.77
2023-04-24T10:59:04.773Z,86.98
2023-04-24T11:04:04.873Z,86.73
2023-04-24T11:09:04.661Z,85.53
2023-04-24T11:14:04.511Z,83.89
2023-04-24T11:19:04.451Z,85.36
2023-04-24T11:24:04.380Z,85.06
2023-04-24T11:29:04.337Z,84.88
2023-04-24T11:34:04.280Z,84.30
2023-04-24T11:39:04.240Z,84.09
2023-04-24T11:44:04.153Z,85.22
2023-04-24T11:49:04.219Z,82.87
2023-04-24T11:54:04.746Z,84.42
2023-04-24T11:59:04.010Z,83.02
2023-04-24T12:04:04.182Z,80.98
2023-04-24T12:09:11.378Z,80.60
2023-04-24T12:14:04.838Z,79.10
2023-04-24T12:19:03.797Z,78.63
2023-04-24T12:24:03.733Z,76.50
2023-04-24T12:29:03.749Z,77.75
2023-04-24T12:34:03.588Z,78.30
2023-04-24T12:39:03.575Z,77.28
2023-04-24T12:44:03.504Z,78.07
2023-04-24T12:49:03.432Z,79.05
2023-04-24T12:54:03.406Z,79.29
2023-04-24T12:59:03.397Z,79.36
2023-04-24T13:04:03.371Z,76.90
2023-04-24T13:09:03.240Z,76.83
2023-04-24T13:14:03.172Z,73.23
2023-04-24T13:19:03.148Z,73.23
2023-04-24T13:24:03.255Z,73.91
2023-04-24T13:29:03.001Z,73.33
2023-04-24T13:34:02.888Z,73.47
2023-04-24T13:39:02.980Z,74.69
2023-04-24T13:44:02.868Z,70.95
2023-04-24T13:49:02.909Z,73.23
2023-04-24T13:54:02.844Z,73.94
2023-04-24T13:59:02.779Z,74.25
2023-04-24T14:04:02.790Z,70.68
2023-04-24T14:09:03.549Z,69.12
2023-04-24T14:14:02.459Z,69.97
2023-04-24T14:19:02.500Z,70.27
2023-04-24T14:24:02.487Z,70.04
2023-04-24T14:29:14.084Z,70.55
2023-04-24T14:34:03.340Z,65.46
2023-04-24T14:39:02.241Z,68.44
2023-04-24T14:44:02.135Z,66.82
2023-04-24T14:49:02.109Z,64.87
2023-04-24T14:54:02.106Z,66.27
2023-04-24T14:59:01.993Z,65.72
2023-04-24T15:04:02.219Z,67.05
2023-04-24T15:09:02.282Z,68.17
2023-04-24T15:14:01.897Z,67.59
2023-04-24T15:19:01.880Z,68.27
2023-04-24T15:24:04.086Z,66.88
2023-04-24T15:29:01.693Z,64.44
2023-04-24T15:34:01.607Z,65.77
2023-04-24T15:39:03.751Z,64.18
2023-04-24T15:44:01.488Z,64.99
2023-04-24T15:49:01.422Z,64.38
2023-04-24T15:54:01.499Z,64.96
2023-04-24T15:59:01.401Z,63.94
2023-04-24T16:04:01.495Z,64.76
2023-04-24T16:09:03.432Z,65.05
2023-04-24T16:14:01.224Z,66.20
2023-04-24T16:19:01.147Z,68.51
2023-04-24T16:24:01.082Z,65.92
2023-04-24T16:29:01.008Z,66.99
2023-04-24T16:34:00.988Z,65.97
2023-04-24T16:39:03.087Z,66.50
2023-04-24T16:44:00.874Z,66.06
2023-04-24T16:49:01.910Z,67.55
2023-04-24T16:54:00.708Z,67.82
2023-04-24T16:59:00.677Z,68.44
2023-04-24T17:04:00.711Z,68.23
2023-04-24T17:09:00.634Z,66.77
2023-04-24T17:14:00.561Z,67.90
2023-04-24T17:19:00.438Z,67.18
2023-04-24T17:24:00.488Z,67.01
2023-04-24T17:29:00.364Z,67.01
2023-04-24T17:34:00.281Z,67.38
2023-04-24T17:39:00.311Z,67.35
2023-04-24T17:44:00.180Z,67.04
2023-04-24T17:49:00.224Z,67.35
2023-04-24T17:54:00.066Z,66.62
2023-04-24T17:58:59.996Z,67.82
2023-04-24T18:04:00.314Z,68.23
2023-04-24T18:08:59.936Z,68.53
2023-04-24T18:13:59.894Z,69.38
2023-04-24T18:18:59.859Z,69.65
2023-04-24T18:23:59.804Z,69.96
2023-04-24T18:28:59.808Z,70.00
2023-04-24T18:33:59.634Z,71.05
2023-04-24T18:38:59.573Z,70.84
2023-04-24T18:43:59.510Z,71.70
2023-04-24T18:48:59.464Z,70.37
2023-04-24T18:53:59.479Z,70.95
2023-04-24T18:58:59.341Z,71.80
2023-04-24T19:04:00.509Z,72.11
2023-04-24T19:08:59.297Z,71.73
2023-04-24T19:13:59.181Z,72.21
2023-04-24T19:18:59.212Z,71.66
2023-04-24T19:23:59.179Z,71.29
2023-04-24T19:28:59.166Z,71.53
2023-04-24T19:33:58.974Z,71.12
2023-04-24T19:38:58.896Z,71.32
2023-04-24T19:43:58.847Z,71.86
2023-04-24T19:48:58.886Z,73.33
2023-04-24T19:53:58.789Z,75.35
2023-04-24T19:58:59.877Z,74.43
2023-04-24T20:03:58.806Z,74.98
2023-04-24T20:08:58.640Z,74.98
2023-04-24T20:13:58.569Z,75.69
2023-04-24T20:18:58.455Z,74.57
2023-04-24T20:23:58.394Z,74.66
2023-04-24T20:28:58.325Z,75.79
2023-04-24T20:33:58.327Z,75.69
2023-04-24T20:38:58.263Z,76.04
2023-04-24T20:43:58.170Z,76.04
2023-04-24T20:48:58.129Z,76.45
2023-04-24T20:53:58.099Z,76.14
2023-04-24T20:58:58.120Z,76.79
2023-04-24T21:03:58.053Z,77.34
2023-04-24T21:08:57.931Z,76.17
2023-04-24T21:13:57.881Z,76.38
2023-04-24T21:18:57.824Z,76.72
2023-04-24T21:23:57.724Z,77.13
2023-04-24T21:28:57.729Z,77.95
2023-04-24T21:33:57.603Z,77.55
2023-04-24T21:38:57.581Z,77.65
2023-04-24T21:43:57.556Z,77.75
2023-04-24T21:48:57.451Z,77.13
2023-04-24T21:53:57.411Z,78.30
2023-04-24T21:58:57.391Z,78.40
2023-04-24T22:03:57.505Z,80.02
2023-04-24T22:08:57.282Z,79.02
2023-04-24T22:13:57.185Z,79.47
2023-04-24T22:18:57.124Z,79.26
2023-04-24T22:23:57.112Z,78.64
2023-04-24T22:28:57.050Z,79.05
2023-04-24T22:33:56.996Z,79.05
2023-04-24T22:38:56.908Z,80.02
2023-04-24T22:43:56.886Z,79.30
2023-04-24T22:48:56.878Z,80.05
2023-04-24T22:53:56.777Z,79.85
2023-04-24T22:58:56.664Z,79.61
2023-04-24T23:03:56.752Z,79.85
2023-04-24T23:08:56.582Z,80.16
2023-04-24T23:13:56.557Z,81.09
2023-04-24T23:18:56.481Z,79.44
2023-04-24T23:23:56.454Z,79.44
2023-04-24T23:28:56.408Z,80.77
2023-04-24T23:33:56.340Z,78.99
2023-04-24T23:38:56.245Z,79.09
2023-04-24T23:43:56.207Z,80.02
2023-04-24T23:48:56.134Z,79.09
2023-04-24T23:53:56.126Z,79.50
2023-04-24T23:58:56.035Z,79.57
